sensor_id;sensor_type;location;lat;lon;timestamp;P1;durP1;ratioP1;P2;durP2;ratioP2
73684;SDS011;61985;51.070;14.064;2023-05-07T00:00:26;20.55;;;11.68;;
73684;SDS011;61985;51.070;14.064;2023-05-07T00:02:51;23.17;;;12.48;;
73684;SDS011;61985;51.070;14.064;2023-05-07T00:05:17;18.00;;;10.93;;
73684;SDS011;61985;51.070;14.064;2023-05-07T00:07:43;21.25;;;10.77;;
73684;SDS011;61985;51.070;14.064;2023-05-07T00:10:09;23.27;;;12.32;;
73684;SDS011;61985;51.070;14.064;2023-05-07T00:12:35;22.88;;;11.48;;
73684;SDS011;61985;51.070;14.064;2023-05-07T00:15:04;25.17;;;12.27;;
73684;SDS011;61985;51.070;14.064;2023-05-07T00:17:30;21.52;;;12.10;;
73684;SDS011;61985;51.070;14.064;2023-05-07T00:19:55;21.85;;;12.20;;
73684;SDS011;61985;51.070;14.064;2023-05-07T00:22:21;22.38;;;11.88;;
73684;SDS011;61985;51.070;14.064;2023-05-07T00:24:46;22.38;;;11.80;;
73684;SDS011;61985;51.070;14.064;2023-05-07T00:27:12;22.08;;;12.43;;
73684;SDS011;61985;51.070;14.064;2023-05-07T00:29:37;21.13;;;12.45;;
73684;SDS011;61985;51.070;14.064;2023-05-07T00:32:02;23.40;;;11.98;;
73684;SDS011;61985;51.070;14.064;2023-05-07T00:34:28;22.42;;;12.25;;
73684;SDS011;61985;51.070;14.064;2023-05-07T00:36:53;23.45;;;12.50;;
73684;SDS011;61985;51.070;14.064;2023-05-07T00:39:18;26.50;;;13.57;;
73684;SDS011;61985;51.070;14.064;2023-05-07T00:41:44;21.55;;;10.98;;
73684;SDS011;61985;51.070;14.064;2023-05-07T00:44:09;24.85;;;11.63;;
73684;SDS011;61985;51.070;14.064;2023-05-07T00:46:35;24.83;;;12.27;;
73684;SDS011;61985;51.070;14.064;2023-05-07T00:49:00;24.10;;;12.50;;
73684;SDS011;61985;51.070;14.064;2023-05-07T00:51:26;24.63;;;12.38;;
73684;SDS011;61985;51.070;14.064;2023-05-07T00:53:52;24.13;;;11.88;;
73684;SDS011;61985;51.070;14.064;2023-05-07T00:56:18;21.90;;;11.57;;
73684;SDS011;61985;51.070;14.064;2023-05-07T00:58:46;23.80;;;12.90;;
73684;SDS011;61985;51.070;14.064;2023-05-07T01:01:12;23.38;;;12.48;;
73684;SDS011;61985;51.070;14.064;2023-05-07T01:03:37;24.95;;;13.02;;
73684;SDS011;61985;51.070;14.064;2023-05-07T01:06:03;20.98;;;12.50;;
73684;SDS011;61985;51.070;14.064;2023-05-07T01:08:29;26.65;;;12.75;;
73684;SDS011;61985;51.070;14.064;2023-05-07T01:10:56;24.70;;;12.43;;
73684;SDS011;61985;51.070;14.064;2023-05-07T01:13:22;22.02;;;11.77;;
73684;SDS011;61985;51.070;14.064;2023-05-07T01:15:49;24.38;;;12.32;;
73684;SDS011;61985;51.070;14.064;2023-05-07T01:18:14;24.50;;;11.77;;
73684;SDS011;61985;51.070;14.064;2023-05-07T01:20:40;21.23;;;11.48;;
73684;SDS011;61985;51.070;14.064;2023-05-07T01:23:06;22.20;;;11.93;;
73684;SDS011;61985;51.070;14.064;2023-05-07T01:25:32;26.33;;;12.65;;
73684;SDS011;61985;51.070;14.064;2023-05-07T01:27:57;22.45;;;11.32;;
73684;SDS011;61985;51.070;14.064;2023-05-07T01:30:24;23.90;;;11.23;;
73684;SDS011;61985;51.070;14.064;2023-05-07T01:32:51;23.80;;;11.48;;
73684;SDS011;61985;51.070;14.064;2023-05-07T01:35:21;22.27;;;11.00;;
73684;SDS011;61985;51.070;14.064;2023-05-07T01:37:49;25.27;;;12.48;;
73684;SDS011;61985;51.070;14.064;2023-05-07T01:40:15;24.05;;;11.45;;
73684;SDS011;61985;51.070;14.064;2023-05-07T01:42:41;20.33;;;11.10;;
73684;SDS011;61985;51.070;14.064;2023-05-07T01:45:08;19.85;;;10.10;;
73684;SDS011;61985;51.070;14.064;2023-05-07T01:47:34;18.45;;;10.23;;
73684;SDS011;61985;51.070;14.064;2023-05-07T01:50:00;21.98;;;10.63;;
73684;SDS011;61985;51.070;14.064;2023-05-07T01:52:27;18.80;;;9.93;;
73684;SDS011;61985;51.070;14.064;2023-05-07T01:54:52;17.45;;;9.65;;
73684;SDS011;61985;51.070;14.064;2023-05-07T01:57:18;15.50;;;8.43;;
73684;SDS011;61985;51.070;14.064;2023-05-07T01:59:43;15.35;;;8.85;;
73684;SDS011;61985;51.070;14.064;2023-05-07T02:02:09;16.80;;;9.15;;
73684;SDS011;61985;51.070;14.064;2023-05-07T02:04:34;17.35;;;9.43;;
73684;SDS011;61985;51.070;14.064;2023-05-07T02:07:00;17.88;;;9.63;;
73684;SDS011;61985;51.070;14.064;2023-05-07T02:09:25;17.85;;;9.68;;
73684;SDS011;61985;51.070;14.064;2023-05-07T02:11:50;20.95;;;10.57;;
73684;SDS011;61985;51.070;14.064;2023-05-07T02:14:16;19.40;;;9.35;;
73684;SDS011;61985;51.070;14.064;2023-05-07T02:16:41;20.52;;;9.95;;
73684;SDS011;61985;51.070;14.064;2023-05-07T02:19:06;18.70;;;9.10;;
73684;SDS011;61985;51.070;14.064;2023-05-07T02:21:32;17.55;;;10.23;;
73684;SDS011;61985;51.070;14.064;2023-05-07T02:23:57;19.45;;;10.02;;
73684;SDS011;61985;51.070;14.064;2023-05-07T02:26:23;19.30;;;10.18;;
73684;SDS011;61985;51.070;14.064;2023-05-07T02:28:48;20.77;;;11.25;;
73684;SDS011;61985;51.070;14.064;2023-05-07T02:31:13;20.60;;;11.77;;
73684;SDS011;61985;51.070;14.064;2023-05-07T02:33:39;23.35;;;10.98;;
73684;SDS011;61985;51.070;14.064;2023-05-07T02:36:05;24.00;;;12.27;;
73684;SDS011;61985;51.070;14.064;2023-05-07T02:38:37;23.60;;;11.80;;
73684;SDS011;61985;51.070;14.064;2023-05-07T02:41:02;23.50;;;12.10;;
73684;SDS011;61985;51.070;14.064;2023-05-07T02:43:28;24.55;;;12.40;;
73684;SDS011;61985;51.070;14.064;2023-05-07T02:46:02;23.83;;;12.50;;
73684;SDS011;61985;51.070;14.064;2023-05-07T02:48:31;24.52;;;12.32;;
73684;SDS011;61985;51.070;14.064;2023-05-07T02:50:57;28.30;;;13.35;;
73684;SDS011;61985;51.070;14.064;2023-05-07T02:53:23;24.98;;;13.45;;
73684;SDS011;61985;51.070;14.064;2023-05-07T02:55:51;25.73;;;12.35;;
73684;SDS011;61985;51.070;14.064;2023-05-07T06:11:13;19.35;;;10.20;;
73684;SDS011;61985;51.070;14.064;2023-05-07T06:13:39;18.95;;;9.13;;
73684;SDS011;61985;51.070;14.064;2023-05-07T06:16:04;17.67;;;8.40;;
73684;SDS011;61985;51.070;14.064;2023-05-07T06:18:30;16.40;;;8.32;;
73684;SDS011;61985;51.070;14.064;2023-05-07T06:20:55;16.30;;;8.50;;
73684;SDS011;61985;51.070;14.064;2023-05-07T06:28:31;11.32;;;6.43;;
73684;SDS011;61985;51.070;14.064;2023-05-07T06:31:16;13.13;;;6.80;;
73684;SDS011;61985;51.070;14.064;2023-05-07T06:38:55;12.02;;;7.03;;
73684;SDS011;61985;51.070;14.064;2023-05-07T06:41:26;10.68;;;5.70;;
73684;SDS011;61985;51.070;14.064;2023-05-07T07:03:08;9.88;;;5.25;;
73684;SDS011;61985;51.070;14.064;2023-05-07T07:10:45;9.13;;;5.10;;
73684;SDS011;61985;51.070;14.064;2023-05-07T07:13:10;9.80;;;5.40;;
73684;SDS011;61985;51.070;14.064;2023-05-07T07:15:35;9.75;;;5.57;;
73684;SDS011;61985;51.070;14.064;2023-05-07T07:18:01;8.90;;;4.90;;
73684;SDS011;61985;51.070;14.064;2023-05-07T07:20:26;9.10;;;5.28;;
73684;SDS011;61985;51.070;14.064;2023-05-07T07:22:51;7.70;;;4.78;;
73684;SDS011;61985;51.070;14.064;2023-05-07T07:25:17;7.28;;;4.72;;
73684;SDS011;61985;51.070;14.064;2023-05-07T07:27:42;6.80;;;4.47;;
73684;SDS011;61985;51.070;14.064;2023-05-07T07:30:07;7.47;;;4.65;;
73684;SDS011;61985;51.070;14.064;2023-05-07T07:32:33;7.60;;;4.50;;
73684;SDS011;61985;51.070;14.064;2023-05-07T07:34:59;8.43;;;4.18;;
73684;SDS011;61985;51.070;14.064;2023-05-07T07:37:25;7.25;;;4.32;;
73684;SDS011;61985;51.070;14.064;2023-05-07T07:39:50;7.03;;;4.53;;
73684;SDS011;61985;51.070;14.064;2023-05-07T07:42:16;8.30;;;4.40;;
73684;SDS011;61985;51.070;14.064;2023-05-07T07:44:41;10.68;;;5.05;;
73684;SDS011;61985;51.070;14.064;2023-05-07T07:47:06;8.15;;;4.95;;
73684;SDS011;61985;51.070;14.064;2023-05-07T07:49:32;8.25;;;5.00;;
73684;SDS011;61985;51.070;14.064;2023-05-07T07:51:57;6.72;;;4.68;;
73684;SDS011;61985;51.070;14.064;2023-05-07T07:54:24;9.13;;;5.43;;
73684;SDS011;61985;51.070;14.064;2023-05-07T07:56:50;10.60;;;5.53;;
73684;SDS011;61985;51.070;14.064;2023-05-07T07:59:15;10.27;;;5.95;;
73684;SDS011;61985;51.070;14.064;2023-05-07T08:01:43;10.80;;;6.53;;
73684;SDS011;61985;51.070;14.064;2023-05-07T08:04:09;12.75;;;7.15;;
73684;SDS011;61985;51.070;14.064;2023-05-07T08:06:35;10.55;;;6.30;;
73684;SDS011;61985;51.070;14.064;2023-05-07T08:09:00;11.13;;;7.10;;
73684;SDS011;61985;51.070;14.064;2023-05-07T08:11:25;13.55;;;7.28;;
73684;SDS011;61985;51.070;14.064;2023-05-07T08:13:51;13.35;;;8.23;;
73684;SDS011;61985;51.070;14.064;2023-05-07T08:16:16;14.13;;;7.95;;
73684;SDS011;61985;51.070;14.064;2023-05-07T08:18:42;13.55;;;6.90;;
73684;SDS011;61985;51.070;14.064;2023-05-07T08:21:07;13.57;;;6.97;;
73684;SDS011;61985;51.070;14.064;2023-05-07T08:23:33;12.77;;;7.80;;
73684;SDS011;61985;51.070;14.064;2023-05-07T08:25:59;14.82;;;8.18;;
73684;SDS011;61985;51.070;14.064;2023-05-07T08:28:25;11.73;;;7.07;;
73684;SDS011;61985;51.070;14.064;2023-05-07T08:30:50;12.32;;;7.13;;
73684;SDS011;61985;51.070;14.064;2023-05-07T08:33:16;13.38;;;7.35;;
73684;SDS011;61985;51.070;14.064;2023-05-07T08:35:41;15.18;;;7.15;;
73684;SDS011;61985;51.070;14.064;2023-05-07T08:38:06;11.93;;;6.78;;
73684;SDS011;61985;51.070;14.064;2023-05-07T08:40:34;11.75;;;6.80;;
73684;SDS011;61985;51.070;14.064;2023-05-07T08:43:02;13.45;;;7.38;;
73684;SDS011;61985;51.070;14.064;2023-05-07T08:45:28;11.53;;;6.87;;
73684;SDS011;61985;51.070;14.064;2023-05-07T08:47:58;14.98;;;6.72;;
73684;SDS011;61985;51.070;14.064;2023-05-07T08:50:24;12.23;;;6.45;;
73684;SDS011;61985;51.070;14.064;2023-05-07T08:52:49;10.55;;;6.20;;
73684;SDS011;61985;51.070;14.064;2023-05-07T08:55:15;9.95;;;6.57;;
73684;SDS011;61985;51.070;14.064;2023-05-07T08:57:41;11.15;;;6.07;;
73684;SDS011;61985;51.070;14.064;2023-05-07T09:00:06;10.35;;;6.30;;
73684;SDS011;61985;51.070;14.064;2023-05-07T09:02:33;10.15;;;6.22;;
73684;SDS011;61985;51.070;14.064;2023-05-07T09:05:01;9.55;;;6.57;;
73684;SDS011;61985;51.070;14.064;2023-05-07T09:07:26;10.77;;;5.70;;
73684;SDS011;61985;51.070;14.064;2023-05-07T09:09:52;12.82;;;7.40;;
73684;SDS011;61985;51.070;14.064;2023-05-07T09:12:18;15.07;;;9.32;;
73684;SDS011;61985;51.070;14.064;2023-05-07T09:14:44;12.98;;;8.00;;
73684;SDS011;61985;51.070;14.064;2023-05-07T09:17:10;13.27;;;7.32;;
73684;SDS011;61985;51.070;14.064;2023-05-07T09:19:36;13.57;;;7.72;;
73684;SDS011;61985;51.070;14.064;2023-05-07T09:22:02;14.23;;;8.25;;
73684;SDS011;61985;51.070;14.064;2023-05-07T09:24:29;12.35;;;7.72;;
73684;SDS011;61985;51.070;14.064;2023-05-07T09:26:59;9.80;;;6.47;;
73684;SDS011;61985;51.070;14.064;2023-05-07T09:29:26;12.48;;;6.68;;
73684;SDS011;61985;51.070;14.064;2023-05-07T09:31:53;10.07;;;6.25;;
73684;SDS011;61985;51.070;14.064;2023-05-07T09:34:19;12.63;;;6.65;;
73684;SDS011;61985;51.070;14.064;2023-05-07T09:36:45;9.32;;;6.68;;
73684;SDS011;61985;51.070;14.064;2023-05-07T09:39:10;11.50;;;6.43;;
73684;SDS011;61985;51.070;14.064;2023-05-07T09:41:43;12.70;;;6.70;;
73684;SDS011;61985;51.070;14.064;2023-05-07T09:44:12;10.15;;;6.35;;
73684;SDS011;61985;51.070;14.064;2023-05-07T09:46:38;12.27;;;7.20;;
73684;SDS011;61985;51.070;14.064;2023-05-07T09:49:06;11.20;;;6.63;;
73684;SDS011;61985;51.070;14.064;2023-05-07T09:51:43;9.88;;;6.20;;
73684;SDS011;61985;51.070;14.064;2023-05-07T09:54:13;10.77;;;6.53;;
73684;SDS011;61985;51.070;14.064;2023-05-07T09:56:39;10.40;;;6.05;;
73684;SDS011;61985;51.070;14.064;2023-05-07T09:59:07;12.23;;;7.13;;
73684;SDS011;61985;51.070;14.064;2023-05-07T10:01:33;12.52;;;6.65;;
73684;SDS011;61985;51.070;14.064;2023-05-07T10:04:01;11.05;;;6.35;;
73684;SDS011;61985;51.070;14.064;2023-05-07T10:06:29;10.00;;;6.68;;
73684;SDS011;61985;51.070;14.064;2023-05-07T10:08:55;9.73;;;5.78;;
73684;SDS011;61985;51.070;14.064;2023-05-07T10:11:21;9.40;;;5.35;;
73684;SDS011;61985;51.070;14.064;2023-05-07T10:13:47;8.40;;;5.00;;
73684;SDS011;61985;51.070;14.064;2023-05-07T10:16:13;9.43;;;5.65;;
73684;SDS011;61985;51.070;14.064;2023-05-07T10:18:40;8.38;;;5.20;;
73684;SDS011;61985;51.070;14.064;2023-05-07T10:21:27;8.75;;;5.45;;
73684;SDS011;61985;51.070;14.064;2023-05-07T10:24:16;9.25;;;4.82;;
73684;SDS011;61985;51.070;14.064;2023-05-07T10:26:45;8.90;;;5.05;;
73684;SDS011;61985;51.070;14.064;2023-05-07T10:29:17;10.20;;;5.50;;
73684;SDS011;61985;51.070;14.064;2023-05-07T10:34:34;8.30;;;4.85;;
73684;SDS011;61985;51.070;14.064;2023-05-07T10:37:02;7.93;;;5.05;;
73684;SDS011;61985;51.070;14.064;2023-05-07T10:39:29;8.75;;;5.40;;
73684;SDS011;61985;51.070;14.064;2023-05-07T10:41:55;8.35;;;5.30;;
73684;SDS011;61985;51.070;14.064;2023-05-07T10:44:27;9.35;;;5.65;;
73684;SDS011;61985;51.070;14.064;2023-05-07T10:47:12;9.00;;;5.40;;
73684;SDS011;61985;51.070;14.064;2023-05-07T10:52:11;8.85;;;5.80;;
73684;SDS011;61985;51.070;14.064;2023-05-07T10:54:41;9.38;;;5.63;;
73684;SDS011;61985;51.070;14.064;2023-05-07T11:00:00;10.23;;;6.28;;
73684;SDS011;61985;51.070;14.064;2023-05-07T11:05:26;8.65;;;5.05;;
73684;SDS011;61985;51.070;14.064;2023-05-07T11:07:56;7.88;;;4.78;;
73684;SDS011;61985;51.070;14.064;2023-05-07T11:13:15;8.75;;;5.47;;
73684;SDS011;61985;51.070;14.064;2023-05-07T11:15:44;10.57;;;5.75;;
73684;SDS011;61985;51.070;14.064;2023-05-07T11:18:11;8.43;;;5.05;;
73684;SDS011;61985;51.070;14.064;2023-05-07T11:20:56;9.32;;;5.78;;
73684;SDS011;61985;51.070;14.064;2023-05-07T11:26:05;9.27;;;5.63;;
73684;SDS011;61985;51.070;14.064;2023-05-07T11:28:37;9.35;;;5.82;;
73684;SDS011;61985;51.070;14.064;2023-05-07T11:31:04;8.43;;;5.50;;
73684;SDS011;61985;51.070;14.064;2023-05-07T11:33:30;8.68;;;5.88;;
73684;SDS011;61985;51.070;14.064;2023-05-07T11:35:56;9.02;;;6.18;;
73684;SDS011;61985;51.070;14.064;2023-05-07T11:38:22;12.30;;;6.18;;
73684;SDS011;61985;51.070;14.064;2023-05-07T11:40:51;9.35;;;5.65;;
73684;SDS011;61985;51.070;14.064;2023-05-07T11:43:17;13.43;;;6.07;;
73684;SDS011;61985;51.070;14.064;2023-05-07T11:45:43;9.32;;;5.28;;
73684;SDS011;61985;51.070;14.064;2023-05-07T11:48:09;8.38;;;5.00;;
73684;SDS011;61985;51.070;14.064;2023-05-07T11:50:35;8.85;;;5.13;;
73684;SDS011;61985;51.070;14.064;2023-05-07T11:53:06;9.07;;;5.57;;
73684;SDS011;61985;51.070;14.064;2023-05-07T11:55:32;8.73;;;5.50;;
73684;SDS011;61985;51.070;14.064;2023-05-07T11:57:58;10.82;;;5.53;;
73684;SDS011;61985;51.070;14.064;2023-05-07T12:00:23;7.55;;;5.22;;
73684;SDS011;61985;51.070;14.064;2023-05-07T12:02:48;10.15;;;6.30;;
73684;SDS011;61985;51.070;14.064;2023-05-07T12:05:14;9.38;;;5.50;;
73684;SDS011;61985;51.070;14.064;2023-05-07T12:07:39;9.23;;;5.85;;
73684;SDS011;61985;51.070;14.064;2023-05-07T12:10:05;7.70;;;5.30;;
73684;SDS011;61985;51.070;14.064;2023-05-07T12:12:37;9.32;;;6.03;;
73684;SDS011;61985;51.070;14.064;2023-05-07T12:15:03;8.77;;;5.90;;
73684;SDS011;61985;51.070;14.064;2023-05-07T12:17:29;7.88;;;5.20;;
73684;SDS011;61985;51.070;14.064;2023-05-07T12:19:54;9.13;;;5.72;;
73684;SDS011;61985;51.070;14.064;2023-05-07T12:22:20;8.77;;;5.05;;
73684;SDS011;61985;51.070;14.064;2023-05-07T12:24:46;12.63;;;5.53;;
73684;SDS011;61985;51.070;14.064;2023-05-07T12:27:15;10.45;;;5.22;;
73684;SDS011;61985;51.070;14.064;2023-05-07T12:29:45;10.15;;;5.85;;
73684;SDS011;61985;51.070;14.064;2023-05-07T12:32:18;10.25;;;5.20;;
73684;SDS011;61985;51.070;14.064;2023-05-07T12:34:45;10.52;;;4.72;;
73684;SDS011;61985;51.070;14.064;2023-05-07T12:37:12;7.75;;;5.30;;
73684;SDS011;61985;51.070;14.064;2023-05-07T12:39:38;8.63;;;5.03;;
73684;SDS011;61985;51.070;14.064;2023-05-07T12:42:03;6.95;;;4.50;;
73684;SDS011;61985;51.070;14.064;2023-05-07T12:44:29;7.60;;;4.40;;
73684;SDS011;61985;51.070;14.064;2023-05-07T12:46:56;7.45;;;4.47;;
73684;SDS011;61985;51.070;14.064;2023-05-07T12:49:22;6.97;;;4.28;;
73684;SDS011;61985;51.070;14.064;2023-05-07T12:51:48;7.90;;;5.43;;
73684;SDS011;61985;51.070;14.064;2023-05-07T12:54:27;7.53;;;4.65;;
73684;SDS011;61985;51.070;14.064;2023-05-07T12:57:00;6.65;;;4.25;;
73684;SDS011;61985;51.070;14.064;2023-05-07T12:59:30;6.72;;;4.70;;
73684;SDS011;61985;51.070;14.064;2023-05-07T13:01:57;9.80;;;4.85;;
73684;SDS011;61985;51.070;14.064;2023-05-07T13:04:24;7.47;;;4.70;;
73684;SDS011;61985;51.070;14.064;2023-05-07T13:06:50;9.02;;;5.13;;
73684;SDS011;61985;51.070;14.064;2023-05-07T13:09:15;6.97;;;4.35;;
73684;SDS011;61985;51.070;14.064;2023-05-07T13:11:40;6.80;;;4.22;;
73684;SDS011;61985;51.070;14.064;2023-05-07T13:14:05;7.65;;;4.53;;
73684;SDS011;61985;51.070;14.064;2023-05-07T13:16:31;5.22;;;3.22;;
73684;SDS011;61985;51.070;14.064;2023-05-07T13:18:56;6.95;;;4.05;;
73684;SDS011;61985;51.070;14.064;2023-05-07T13:21:21;6.90;;;4.10;;
73684;SDS011;61985;51.070;14.064;2023-05-07T13:23:47;5.80;;;3.50;;
73684;SDS011;61985;51.070;14.064;2023-05-07T13:26:12;5.90;;;4.00;;
73684;SDS011;61985;51.070;14.064;2023-05-07T13:28:37;6.07;;;3.70;;
73684;SDS011;61985;51.070;14.064;2023-05-07T13:31:03;6.43;;;3.97;;
73684;SDS011;61985;51.070;14.064;2023-05-07T13:33:28;7.72;;;4.03;;
73684;SDS011;61985;51.070;14.064;2023-05-07T13:35:53;5.30;;;3.20;;
73684;SDS011;61985;51.070;14.064;2023-05-07T13:38:19;5.25;;;3.55;;
73684;SDS011;61985;51.070;14.064;2023-05-07T13:40:44;7.53;;;3.70;;
73684;SDS011;61985;51.070;14.064;2023-05-07T13:43:09;5.85;;;3.72;;
73684;SDS011;61985;51.070;14.064;2023-05-07T13:45:35;11.15;;;6.28;;
73684;SDS011;61985;51.070;14.064;2023-05-07T13:48:00;5.20;;;3.60;;
73684;SDS011;61985;51.070;14.064;2023-05-07T13:50:26;6.18;;;3.30;;
73684;SDS011;61985;51.070;14.064;2023-05-07T13:52:54;5.78;;;3.17;;
73684;SDS011;61985;51.070;14.064;2023-05-07T13:55:20;4.90;;;3.30;;
73684;SDS011;61985;51.070;14.064;2023-05-07T13:57:47;4.88;;;2.80;;
73684;SDS011;61985;51.070;14.064;2023-05-07T14:00:23;5.45;;;3.33;;
73684;SDS011;61985;51.070;14.064;2023-05-07T14:02:49;5.55;;;3.40;;
73684;SDS011;61985;51.070;14.064;2023-05-07T14:05:15;5.45;;;3.58;;
73684;SDS011;61985;51.070;14.064;2023-05-07T14:07:40;4.65;;;3.35;;
73684;SDS011;61985;51.070;14.064;2023-05-07T14:10:05;7.03;;;4.00;;
73684;SDS011;61985;51.070;14.064;2023-05-07T14:12:31;7.47;;;4.20;;
73684;SDS011;61985;51.070;14.064;2023-05-07T14:14:57;7.40;;;4.65;;
73684;SDS011;61985;51.070;14.064;2023-05-07T14:17:22;7.68;;;4.60;;
73684;SDS011;61985;51.070;14.064;2023-05-07T14:19:50;9.75;;;4.55;;
73684;SDS011;61985;51.070;14.064;2023-05-07T14:22:15;8.85;;;5.40;;
73684;SDS011;61985;51.070;14.064;2023-05-07T14:24:40;6.57;;;4.20;;
73684;SDS011;61985;51.070;14.064;2023-05-07T14:27:06;8.60;;;4.80;;
73684;SDS011;61985;51.070;14.064;2023-05-07T14:29:31;6.30;;;4.32;;
73684;SDS011;61985;51.070;14.064;2023-05-07T14:31:57;5.68;;;3.90;;
73684;SDS011;61985;51.070;14.064;2023-05-07T14:34:22;5.55;;;4.10;;
73684;SDS011;61985;51.070;14.064;2023-05-07T14:36:47;5.35;;;3.88;;
73684;SDS011;61985;51.070;14.064;2023-05-07T14:39:13;6.85;;;4.47;;
73684;SDS011;61985;51.070;14.064;2023-05-07T14:41:38;7.28;;;4.35;;
73684;SDS011;61985;51.070;14.064;2023-05-07T14:44:04;6.45;;;4.10;;
73684;SDS011;61985;51.070;14.064;2023-05-07T14:46:29;9.05;;;4.60;;
73684;SDS011;61985;51.070;14.064;2023-05-07T14:48:54;8.63;;;5.13;;
73684;SDS011;61985;51.070;14.064;2023-05-07T14:51:20;8.25;;;5.57;;
73684;SDS011;61985;51.070;14.064;2023-05-07T14:53:46;9.98;;;5.20;;
73684;SDS011;61985;51.070;14.064;2023-05-07T14:56:11;9.07;;;4.85;;
73684;SDS011;61985;51.070;14.064;2023-05-07T14:58:36;7.97;;;4.82;;
73684;SDS011;61985;51.070;14.064;2023-05-07T15:01:03;7.05;;;4.53;;
73684;SDS011;61985;51.070;14.064;2023-05-07T15:03:28;6.65;;;4.25;;
73684;SDS011;61985;51.070;14.064;2023-05-07T15:05:54;7.30;;;4.75;;
73684;SDS011;61985;51.070;14.064;2023-05-07T15:08:20;8.18;;;4.88;;
73684;SDS011;61985;51.070;14.064;2023-05-07T15:10:45;7.68;;;4.63;;
73684;SDS011;61985;51.070;14.064;2023-05-07T15:13:11;7.45;;;5.32;;
73684;SDS011;61985;51.070;14.064;2023-05-07T15:15:38;7.75;;;5.45;;
73684;SDS011;61985;51.070;14.064;2023-05-07T15:18:03;9.95;;;5.65;;
73684;SDS011;61985;51.070;14.064;2023-05-07T15:20:29;7.88;;;5.28;;
73684;SDS011;61985;51.070;14.064;2023-05-07T15:22:55;7.95;;;5.68;;
73684;SDS011;61985;51.070;14.064;2023-05-07T15:25:20;10.68;;;5.38;;
73684;SDS011;61985;51.070;14.064;2023-05-07T15:27:46;8.05;;;5.40;;
73684;SDS011;61985;51.070;14.064;2023-05-07T15:30:12;7.78;;;4.85;;
73684;SDS011;61985;51.070;14.064;2023-05-07T15:32:39;9.27;;;5.90;;
73684;SDS011;61985;51.070;14.064;2023-05-07T15:35:05;7.32;;;4.90;;
73684;SDS011;61985;51.070;14.064;2023-05-07T15:37:31;9.25;;;5.72;;
73684;SDS011;61985;51.070;14.064;2023-05-07T15:39:57;8.25;;;5.05;;
73684;SDS011;61985;51.070;14.064;2023-05-07T15:42:22;8.25;;;5.30;;
73684;SDS011;61985;51.070;14.064;2023-05-07T15:44:48;7.38;;;5.18;;
73684;SDS011;61985;51.070;14.064;2023-05-07T15:47:13;8.52;;;5.45;;
73684;SDS011;61985;51.070;14.064;2023-05-07T15:49:40;7.97;;;5.30;;
73684;SDS011;61985;51.070;14.064;2023-05-07T15:52:05;9.13;;;5.60;;
73684;SDS011;61985;51.070;14.064;2023-05-07T15:54:31;9.13;;;6.05;;
73684;SDS011;61985;51.070;14.064;2023-05-07T15:56:59;9.30;;;6.05;;
73684;SDS011;61985;51.070;14.064;2023-05-07T15:59:25;10.45;;;6.00;;
73684;SDS011;61985;51.070;14.064;2023-05-07T16:01:51;9.75;;;5.70;;
73684;SDS011;61985;51.070;14.064;2023-05-07T16:04:17;8.25;;;5.00;;
73684;SDS011;61985;51.070;14.064;2023-05-07T16:06:42;8.07;;;5.30;;
73684;SDS011;61985;51.070;14.064;2023-05-07T16:09:11;7.18;;;4.70;;
73684;SDS011;61985;51.070;14.064;2023-05-07T16:11:36;8.27;;;5.53;;
73684;SDS011;61985;51.070;14.064;2023-05-07T16:14:01;9.30;;;5.05;;
73684;SDS011;61985;51.070;14.064;2023-05-07T16:16:27;8.80;;;5.22;;
73684;SDS011;61985;51.070;14.064;2023-05-07T16:18:54;7.57;;;4.75;;
73684;SDS011;61985;51.070;14.064;2023-05-07T16:21:22;9.82;;;5.10;;
73684;SDS011;61985;51.070;14.064;2023-05-07T16:23:48;7.05;;;4.47;;
73684;SDS011;61985;51.070;14.064;2023-05-07T16:26:14;8.18;;;5.20;;
73684;SDS011;61985;51.070;14.064;2023-05-07T16:28:40;9.07;;;5.22;;
73684;SDS011;61985;51.070;14.064;2023-05-07T16:31:08;7.63;;;5.00;;
73684;SDS011;61985;51.070;14.064;2023-05-07T16:33:34;8.20;;;5.60;;
73684;SDS011;61985;51.070;14.064;2023-05-07T16:35:59;11.48;;;4.72;;
73684;SDS011;61985;51.070;14.064;2023-05-07T16:38:25;8.93;;;5.40;;
73684;SDS011;61985;51.070;14.064;2023-05-07T16:40:52;8.40;;;5.20;;
73684;SDS011;61985;51.070;14.064;2023-05-07T16:43:18;8.18;;;5.22;;
73684;SDS011;61985;51.070;14.064;2023-05-07T16:45:43;8.25;;;5.38;;
73684;SDS011;61985;51.070;14.064;2023-05-07T16:48:09;7.85;;;5.47;;
73684;SDS011;61985;51.070;14.064;2023-05-07T16:50:34;8.27;;;5.40;;
73684;SDS011;61985;51.070;14.064;2023-05-07T16:53:00;7.95;;;4.97;;
73684;SDS011;61985;51.070;14.064;2023-05-07T16:55:25;7.38;;;4.78;;
73684;SDS011;61985;51.070;14.064;2023-05-07T16:57:50;8.55;;;5.30;;
73684;SDS011;61985;51.070;14.064;2023-05-07T17:00:16;8.43;;;5.20;;
73684;SDS011;61985;51.070;14.064;2023-05-07T17:02:42;9.50;;;5.60;;
73684;SDS011;61985;51.070;14.064;2023-05-07T17:05:07;9.60;;;4.88;;
73684;SDS011;61985;51.070;14.064;2023-05-07T17:07:33;7.60;;;5.00;;
73684;SDS011;61985;51.070;14.064;2023-05-07T17:09:59;7.32;;;4.50;;
73684;SDS011;61985;51.070;14.064;2023-05-07T17:12:25;9.93;;;4.82;;
73684;SDS011;61985;51.070;14.064;2023-05-07T17:14:51;9.85;;;5.50;;
73684;SDS011;61985;51.070;14.064;2023-05-07T17:17:16;9.00;;;5.40;;
73684;SDS011;61985;51.070;14.064;2023-05-07T17:19:42;7.00;;;4.53;;
73684;SDS011;61985;51.070;14.064;2023-05-07T17:22:08;7.97;;;4.80;;
73684;SDS011;61985;51.070;14.064;2023-05-07T17:24:33;8.13;;;5.10;;
73684;SDS011;61985;51.070;14.064;2023-05-07T17:26:58;8.73;;;4.95;;
73684;SDS011;61985;51.070;14.064;2023-05-07T17:29:24;9.40;;;5.20;;
73684;SDS011;61985;51.070;14.064;2023-05-07T17:31:49;7.60;;;4.88;;
73684;SDS011;61985;51.070;14.064;2023-05-07T17:34:14;7.38;;;4.80;;
73684;SDS011;61985;51.070;14.064;2023-05-07T17:36:39;10.90;;;5.32;;
73684;SDS011;61985;51.070;14.064;2023-05-07T17:39:05;9.13;;;5.20;;
73684;SDS011;61985;51.070;14.064;2023-05-07T17:41:30;10.43;;;5.22;;
73684;SDS011;61985;51.070;14.064;2023-05-07T17:43:55;9.52;;;5.53;;
73684;SDS011;61985;51.070;14.064;2023-05-07T17:46:21;10.52;;;5.43;;
73684;SDS011;61985;51.070;14.064;2023-05-07T17:48:46;7.47;;;4.85;;
73684;SDS011;61985;51.070;14.064;2023-05-07T17:51:11;9.00;;;5.65;;
73684;SDS011;61985;51.070;14.064;2023-05-07T17:53:37;8.95;;;5.57;;
73684;SDS011;61985;51.070;14.064;2023-05-07T17:56:03;9.88;;;5.60;;
73684;SDS011;61985;51.070;14.064;2023-05-07T17:58:29;11.88;;;5.43;;
73684;SDS011;61985;51.070;14.064;2023-05-07T18:00:55;7.43;;;5.05;;
73684;SDS011;61985;51.070;14.064;2023-05-07T18:03:20;8.32;;;5.32;;
73684;SDS011;61985;51.070;14.064;2023-05-07T18:05:48;9.05;;;5.05;;
73684;SDS011;61985;51.070;14.064;2023-05-07T18:08:13;9.68;;;6.00;;
73684;SDS011;61985;51.070;14.064;2023-05-07T18:10:39;9.73;;;5.35;;
73684;SDS011;61985;51.070;14.064;2023-05-07T18:13:04;7.80;;;5.20;;
73684;SDS011;61985;51.070;14.064;2023-05-07T18:15:30;9.50;;;6.05;;
73684;SDS011;61985;51.070;14.064;2023-05-07T18:17:55;10.57;;;5.93;;
73684;SDS011;61985;51.070;14.064;2023-05-07T18:20:20;10.45;;;5.38;;
73684;SDS011;61985;51.070;14.064;2023-05-07T18:22:46;10.40;;;5.80;;
73684;SDS011;61985;51.070;14.064;2023-05-07T18:25:11;7.97;;;5.20;;